English Creek, New Jersey
Current Conditions -  °F | °C
As of 7:54 AM on Wednesday 26 Nov 2014 (Local Time) from KACY Reporting Station
Light Rain Light Rain  
Wind Chill: 37°   Ceiling: 6000
Heat Index: 42°   Visibility: 4mi
Dew Point: 41°   Wind: 9mph
Humidity: 96%   Direction: 20°NNE
Pressure: 30.04"   Gusts: NA
Location:  39.4502°N, 74.7366°W
Report Text: KACY 261254Z 02008KT 4SM -RA BR FEW007 SCT046 OVC060 06/05 A3004 RMK AO2 SLP174 P0005 T00560050
Loading
Personal Weather Stations






























Interactive Weather Map New forecast layout! Learn more

10-Day Weather Forecast

Advertisements
Track Severe Weather on mobile